sensor_id;sensor_type;location;lat;lon;timestamp;P1;durP1;ratioP1;P2;durP2;ratioP2
43620;SDS011;29213;50.770;7.298;2023-06-22T00:01:50;6.53;;;4.93;;
43620;SDS011;29213;50.770;7.298;2023-06-22T00:04:15;5.80;;;4.43;;
43620;SDS011;29213;50.770;7.298;2023-06-22T00:06:41;7.43;;;5.00;;
43620;SDS011;29213;50.770;7.298;2023-06-22T00:09:06;5.60;;;4.50;;
43620;SDS011;29213;50.770;7.298;2023-06-22T00:11:32;6.68;;;4.78;;
43620;SDS011;29213;50.770;7.298;2023-06-22T00:13:58;6.45;;;5.40;;
43620;SDS011;29213;50.770;7.298;2023-06-22T00:16:27;6.28;;;4.45;;
43620;SDS011;29213;50.770;7.298;2023-06-22T00:18:52;6.10;;;4.82;;
43620;SDS011;29213;50.770;7.298;2023-06-22T00:21:18;6.25;;;4.60;;
43620;SDS011;29213;50.770;7.298;2023-06-22T00:23:45;5.82;;;4.70;;
43620;SDS011;29213;50.770;7.298;2023-06-22T00:26:12;7.63;;;4.47;;
43620;SDS011;29213;50.770;7.298;2023-06-22T00:28:38;7.57;;;4.78;;
43620;SDS011;29213;50.770;7.298;2023-06-22T00:31:03;5.97;;;4.38;;
43620;SDS011;29213;50.770;7.298;2023-06-22T00:33:29;5.97;;;4.63;;
43620;SDS011;29213;50.770;7.298;2023-06-22T00:35:54;6.57;;;4.32;;
43620;SDS011;29213;50.770;7.298;2023-06-22T00:38:19;7.00;;;5.03;;
43620;SDS011;29213;50.770;7.298;2023-06-22T00:40:45;7.45;;;4.88;;
43620;SDS011;29213;50.770;7.298;2023-06-22T00:43:11;5.65;;;4.30;;
43620;SDS011;29213;50.770;7.298;2023-06-22T00:45:36;6.38;;;4.35;;
43620;SDS011;29213;50.770;7.298;2023-06-22T00:48:03;6.03;;;4.50;;
43620;SDS011;29213;50.770;7.298;2023-06-22T00:50:30;6.47;;;4.50;;
43620;SDS011;29213;50.770;7.298;2023-06-22T00:52:59;5.55;;;4.43;;
43620;SDS011;29213;50.770;7.298;2023-06-22T00:55:33;7.25;;;5.10;;
43620;SDS011;29213;50.770;7.298;2023-06-22T00:58:02;6.25;;;4.70;;
43620;SDS011;29213;50.770;7.298;2023-06-22T01:00:30;5.32;;;4.50;;
43620;SDS011;29213;50.770;7.298;2023-06-22T01:02:57;6.20;;;4.68;;
43620;SDS011;29213;50.770;7.298;2023-06-22T01:05:23;6.97;;;4.57;;
43620;SDS011;29213;50.770;7.298;2023-06-22T01:11:00;5.90;;;4.80;;
43620;SDS011;29213;50.770;7.298;2023-06-22T01:18:55;6.95;;;4.63;;
43620;SDS011;29213;50.770;7.298;2023-06-22T01:21:24;7.90;;;4.95;;
43620;SDS011;29213;50.770;7.298;2023-06-22T01:24:02;7.00;;;4.65;;
43620;SDS011;29213;50.770;7.298;2023-06-22T01:26:35;8.35;;;4.88;;
43620;SDS011;29213;50.770;7.298;2023-06-22T01:29:01;8.60;;;4.90;;
43620;SDS011;29213;50.770;7.298;2023-06-22T01:31:29;9.02;;;5.05;;
43620;SDS011;29213;50.770;7.298;2023-06-22T01:33:58;8.13;;;4.93;;
43620;SDS011;29213;50.770;7.298;2023-06-22T01:36:25;9.35;;;4.72;;
43620;SDS011;29213;50.770;7.298;2023-06-22T01:38:52;5.70;;;4.50;;
43620;SDS011;29213;50.770;7.298;2023-06-22T01:41:24;7.22;;;4.60;;
43620;SDS011;29213;50.770;7.298;2023-06-22T01:43:51;6.97;;;4.88;;
43620;SDS011;29213;50.770;7.298;2023-06-22T01:46:18;6.05;;;4.68;;
43620;SDS011;29213;50.770;7.298;2023-06-22T01:48:45;8.05;;;5.53;;
43620;SDS011;29213;50.770;7.298;2023-06-22T01:51:11;7.43;;;4.60;;
43620;SDS011;29213;50.770;7.298;2023-06-22T01:53:37;7.18;;;4.88;;
43620;SDS011;29213;50.770;7.298;2023-06-22T01:56:02;7.57;;;4.82;;
43620;SDS011;29213;50.770;7.298;2023-06-22T01:58:29;6.82;;;4.93;;
43620;SDS011;29213;50.770;7.298;2023-06-22T02:01:00;6.30;;;5.07;;
43620;SDS011;29213;50.770;7.298;2023-06-22T02:03:40;7.57;;;5.53;;
43620;SDS011;29213;50.770;7.298;2023-06-22T02:06:10;8.05;;;5.15;;
43620;SDS011;29213;50.770;7.298;2023-06-22T02:08:41;8.20;;;5.30;;
43620;SDS011;29213;50.770;7.298;2023-06-22T02:11:13;9.07;;;4.95;;
43620;SDS011;29213;50.770;7.298;2023-06-22T02:13:41;11.90;;;5.38;;
43620;SDS011;29213;50.770;7.298;2023-06-22T02:16:09;12.00;;;5.45;;
43620;SDS011;29213;50.770;7.298;2023-06-22T02:18:36;7.50;;;4.95;;
43620;SDS011;29213;50.770;7.298;2023-06-22T02:21:02;9.77;;;5.13;;
43620;SDS011;29213;50.770;7.298;2023-06-22T02:23:28;7.10;;;5.15;;
43620;SDS011;29213;50.770;7.298;2023-06-22T02:25:53;6.88;;;4.68;;
43620;SDS011;29213;50.770;7.298;2023-06-22T02:28:19;7.03;;;5.03;;
43620;SDS011;29213;50.770;7.298;2023-06-22T02:30:44;6.85;;;4.88;;
43620;SDS011;29213;50.770;7.298;2023-06-22T02:33:10;7.10;;;5.32;;
43620;SDS011;29213;50.770;7.298;2023-06-22T02:35:35;6.38;;;4.70;;
43620;SDS011;29213;50.770;7.298;2023-06-22T02:38:01;5.80;;;4.63;;
43620;SDS011;29213;50.770;7.298;2023-06-22T02:40:29;7.80;;;5.30;;
43620;SDS011;29213;50.770;7.298;2023-06-22T02:42:54;7.32;;;5.28;;
43620;SDS011;29213;50.770;7.298;2023-06-22T02:45:23;9.75;;;5.18;;
43620;SDS011;29213;50.770;7.298;2023-06-22T02:47:48;7.45;;;4.90;;
43620;SDS011;29213;50.770;7.298;2023-06-22T02:50:13;6.35;;;5.07;;
43620;SDS011;29213;50.770;7.298;2023-06-22T02:52:39;6.43;;;5.10;;
43620;SDS011;29213;50.770;7.298;2023-06-22T02:55:05;5.80;;;4.88;;
43620;SDS011;29213;50.770;7.298;2023-06-22T02:57:32;6.57;;;5.10;;
43620;SDS011;29213;50.770;7.298;2023-06-22T02:59:57;7.47;;;4.90;;
43620;SDS011;29213;50.770;7.298;2023-06-22T03:02:23;8.05;;;4.75;;
43620;SDS011;29213;50.770;7.298;2023-06-22T03:04:48;8.15;;;5.20;;
43620;SDS011;29213;50.770;7.298;2023-06-22T03:07:14;7.28;;;5.18;;
43620;SDS011;29213;50.770;7.298;2023-06-22T03:09:40;6.18;;;4.78;;
43620;SDS011;29213;50.770;7.298;2023-06-22T03:12:08;7.82;;;5.30;;
43620;SDS011;29213;50.770;7.298;2023-06-22T03:14:33;7.18;;;4.75;;
43620;SDS011;29213;50.770;7.298;2023-06-22T03:16:59;6.25;;;4.50;;
43620;SDS011;29213;50.770;7.298;2023-06-22T03:19:28;8.40;;;5.70;;
43620;SDS011;29213;50.770;7.298;2023-06-22T03:21:56;8.82;;;5.10;;
43620;SDS011;29213;50.770;7.298;2023-06-22T03:24:22;8.05;;;4.95;;
43620;SDS011;29213;50.770;7.298;2023-06-22T03:26:47;7.00;;;5.43;;
43620;SDS011;29213;50.770;7.298;2023-06-22T03:29:13;6.95;;;5.28;;
43620;SDS011;29213;50.770;7.298;2023-06-22T03:31:38;7.13;;;5.40;;
43620;SDS011;29213;50.770;7.298;2023-06-22T03:34:04;6.25;;;4.72;;
43620;SDS011;29213;50.770;7.298;2023-06-22T03:36:30;8.40;;;5.32;;
43620;SDS011;29213;50.770;7.298;2023-06-22T03:38:55;6.68;;;5.13;;
43620;SDS011;29213;50.770;7.298;2023-06-22T03:41:20;8.30;;;5.10;;
43620;SDS011;29213;50.770;7.298;2023-06-22T03:43:46;7.90;;;5.05;;
43620;SDS011;29213;50.770;7.298;2023-06-22T03:46:11;6.35;;;4.95;;
43620;SDS011;29213;50.770;7.298;2023-06-22T03:48:37;5.50;;;4.50;;
43620;SDS011;29213;50.770;7.298;2023-06-22T03:51:03;6.38;;;4.75;;
43620;SDS011;29213;50.770;7.298;2023-06-22T03:53:28;7.93;;;5.20;;
43620;SDS011;29213;50.770;7.298;2023-06-22T03:55:54;8.95;;;5.50;;
43620;SDS011;29213;50.770;7.298;2023-06-22T03:58:21;8.13;;;5.60;;
43620;SDS011;29213;50.770;7.298;2023-06-22T04:00:47;8.48;;;5.97;;
43620;SDS011;29213;50.770;7.298;2023-06-22T04:03:13;7.85;;;5.85;;
43620;SDS011;29213;50.770;7.298;2023-06-22T04:05:39;8.10;;;5.47;;
43620;SDS011;29213;50.770;7.298;2023-06-22T04:08:06;7.30;;;5.20;;
43620;SDS011;29213;50.770;7.298;2023-06-22T04:10:32;6.07;;;5.20;;
43620;SDS011;29213;50.770;7.298;2023-06-22T04:12:57;6.53;;;5.47;;
43620;SDS011;29213;50.770;7.298;2023-06-22T04:15:23;8.00;;;5.55;;
43620;SDS011;29213;50.770;7.298;2023-06-22T04:17:48;6.88;;;5.30;;
43620;SDS011;29213;50.770;7.298;2023-06-22T04:20:14;7.55;;;5.70;;
43620;SDS011;29213;50.770;7.298;2023-06-22T04:22:39;8.40;;;5.80;;
43620;SDS011;29213;50.770;7.298;2023-06-22T04:25:05;8.23;;;5.38;;
43620;SDS011;29213;50.770;7.298;2023-06-22T04:27:32;7.88;;;5.88;;
43620;SDS011;29213;50.770;7.298;2023-06-22T04:30:02;6.78;;;5.78;;
43620;SDS011;29213;50.770;7.298;2023-06-22T04:32:28;7.68;;;6.30;;
43620;SDS011;29213;50.770;7.298;2023-06-22T04:34:54;7.97;;;6.70;;
43620;SDS011;29213;50.770;7.298;2023-06-22T04:37:19;7.28;;;6.18;;
43620;SDS011;29213;50.770;7.298;2023-06-22T04:39:48;7.63;;;6.53;;
43620;SDS011;29213;50.770;7.298;2023-06-22T04:42:14;8.35;;;6.57;;
43620;SDS011;29213;50.770;7.298;2023-06-22T04:44:39;7.88;;;6.70;;
43620;SDS011;29213;50.770;7.298;2023-06-22T04:47:06;8.63;;;6.80;;
43620;SDS011;29213;50.770;7.298;2023-06-22T04:49:34;6.68;;;5.95;;
43620;SDS011;29213;50.770;7.298;2023-06-22T04:52:05;7.72;;;6.18;;
43620;SDS011;29213;50.770;7.298;2023-06-22T04:54:32;9.55;;;6.70;;
43620;SDS011;29213;50.770;7.298;2023-06-22T04:57:02;6.95;;;6.15;;
43620;SDS011;29213;50.770;7.298;2023-06-22T04:59:29;8.75;;;6.80;;
43620;SDS011;29213;50.770;7.298;2023-06-22T05:01:56;6.82;;;6.13;;
43620;SDS011;29213;50.770;7.298;2023-06-22T05:04:23;7.80;;;6.63;;
43620;SDS011;29213;50.770;7.298;2023-06-22T05:06:49;9.05;;;6.57;;
43620;SDS011;29213;50.770;7.298;2023-06-22T05:09:16;8.90;;;6.97;;
43620;SDS011;29213;50.770;7.298;2023-06-22T05:11:42;7.78;;;6.63;;
43620;SDS011;29213;50.770;7.298;2023-06-22T05:14:08;6.85;;;5.90;;
43620;SDS011;29213;50.770;7.298;2023-06-22T05:16:33;8.82;;;7.18;;
43620;SDS011;29213;50.770;7.298;2023-06-22T05:18:59;9.38;;;7.00;;
43620;SDS011;29213;50.770;7.298;2023-06-22T05:21:25;8.35;;;7.13;;
43620;SDS011;29213;50.770;7.298;2023-06-22T05:23:52;9.30;;;7.20;;
43620;SDS011;29213;50.770;7.298;2023-06-22T05:26:19;8.40;;;7.00;;
43620;SDS011;29213;50.770;7.298;2023-06-22T05:28:45;8.32;;;6.78;;
43620;SDS011;29213;50.770;7.298;2023-06-22T05:31:14;9.30;;;7.88;;
43620;SDS011;29213;50.770;7.298;2023-06-22T05:33:43;9.15;;;7.85;;
43620;SDS011;29213;50.770;7.298;2023-06-22T05:36:09;12.85;;;8.30;;
43620;SDS011;29213;50.770;7.298;2023-06-22T05:38:35;8.77;;;7.63;;
43620;SDS011;29213;50.770;7.298;2023-06-22T05:41:01;10.65;;;7.20;;
43620;SDS011;29213;50.770;7.298;2023-06-22T05:43:26;9.00;;;8.10;;
43620;SDS011;29213;50.770;7.298;2023-06-22T05:45:52;10.65;;;7.97;;
43620;SDS011;29213;50.770;7.298;2023-06-22T05:48:17;7.63;;;6.20;;
43620;SDS011;29213;50.770;7.298;2023-06-22T05:50:43;9.32;;;8.00;;
43620;SDS011;29213;50.770;7.298;2023-06-22T05:53:08;9.38;;;7.32;;
43620;SDS011;29213;50.770;7.298;2023-06-22T05:55:34;10.18;;;7.47;;
43620;SDS011;29213;50.770;7.298;2023-06-22T05:57:59;11.20;;;7.60;;
43620;SDS011;29213;50.770;7.298;2023-06-22T06:00:24;8.38;;;7.15;;
43620;SDS011;29213;50.770;7.298;2023-06-22T06:02:50;7.88;;;6.70;;
43620;SDS011;29213;50.770;7.298;2023-06-22T06:05:15;9.20;;;7.18;;
43620;SDS011;29213;50.770;7.298;2023-06-22T06:07:41;8.73;;;7.35;;
43620;SDS011;29213;50.770;7.298;2023-06-22T06:10:07;9.35;;;6.60;;
43620;SDS011;29213;50.770;7.298;2023-06-22T06:12:33;8.55;;;6.90;;
43620;SDS011;29213;50.770;7.298;2023-06-22T06:14:58;7.90;;;7.07;;
43620;SDS011;29213;50.770;7.298;2023-06-22T06:17:24;8.05;;;7.25;;
43620;SDS011;29213;50.770;7.298;2023-06-22T06:19:49;7.65;;;6.35;;
43620;SDS011;29213;50.770;7.298;2023-06-22T06:22:15;7.35;;;6.55;;
43620;SDS011;29213;50.770;7.298;2023-06-22T06:24:40;7.15;;;6.03;;
43620;SDS011;29213;50.770;7.298;2023-06-22T06:27:06;6.80;;;5.78;;
43620;SDS011;29213;50.770;7.298;2023-06-22T06:29:31;7.15;;;5.80;;
43620;SDS011;29213;50.770;7.298;2023-06-22T06:31:57;8.40;;;6.38;;
43620;SDS011;29213;50.770;7.298;2023-06-22T06:34:22;7.90;;;6.00;;
43620;SDS011;29213;50.770;7.298;2023-06-22T06:36:48;7.97;;;5.90;;
43620;SDS011;29213;50.770;7.298;2023-06-22T06:39:13;6.78;;;5.68;;
43620;SDS011;29213;50.770;7.298;2023-06-22T06:41:39;6.82;;;5.63;;
43620;SDS011;29213;50.770;7.298;2023-06-22T06:44:04;6.50;;;5.30;;
43620;SDS011;29213;50.770;7.298;2023-06-22T06:46:29;6.65;;;5.45;;
43620;SDS011;29213;50.770;7.298;2023-06-22T06:48:55;6.68;;;5.68;;
43620;SDS011;29213;50.770;7.298;2023-06-22T06:51:20;7.22;;;5.60;;
43620;SDS011;29213;50.770;7.298;2023-06-22T06:53:46;6.32;;;5.22;;
43620;SDS011;29213;50.770;7.298;2023-06-22T06:56:11;6.60;;;5.70;;
43620;SDS011;29213;50.770;7.298;2023-06-22T06:58:38;7.18;;;5.30;;
43620;SDS011;29213;50.770;7.298;2023-06-22T07:01:06;6.72;;;5.32;;
43620;SDS011;29213;50.770;7.298;2023-06-22T07:03:31;8.10;;;5.90;;
43620;SDS011;29213;50.770;7.298;2023-06-22T07:05:58;7.05;;;5.45;;
43620;SDS011;29213;50.770;7.298;2023-06-22T07:08:24;7.05;;;5.68;;
43620;SDS011;29213;50.770;7.298;2023-06-22T07:10:49;7.25;;;5.30;;
43620;SDS011;29213;50.770;7.298;2023-06-22T07:13:14;5.80;;;5.07;;
43620;SDS011;29213;50.770;7.298;2023-06-22T07:15:40;6.97;;;5.70;;
43620;SDS011;29213;50.770;7.298;2023-06-22T07:18:05;6.90;;;5.63;;
43620;SDS011;29213;50.770;7.298;2023-06-22T07:20:31;7.30;;;5.70;;
43620;SDS011;29213;50.770;7.298;2023-06-22T07:22:56;6.35;;;5.35;;
43620;SDS011;29213;50.770;7.298;2023-06-22T07:25:23;6.95;;;5.85;;
43620;SDS011;29213;50.770;7.298;2023-06-22T07:28:06;7.28;;;5.65;;
43620;SDS011;29213;50.770;7.298;2023-06-22T07:30:32;8.13;;;6.65;;
43620;SDS011;29213;50.770;7.298;2023-06-22T07:32:58;7.95;;;6.50;;
43620;SDS011;29213;50.770;7.298;2023-06-22T07:35:28;8.30;;;5.63;;
43620;SDS011;29213;50.770;7.298;2023-06-22T07:37:57;7.25;;;6.30;;
43620;SDS011;29213;50.770;7.298;2023-06-22T07:40:23;11.15;;;6.18;;
43620;SDS011;29213;50.770;7.298;2023-06-22T07:42:48;6.35;;;5.70;;
43620;SDS011;29213;50.770;7.298;2023-06-22T07:45:16;6.90;;;5.90;;
43620;SDS011;29213;50.770;7.298;2023-06-22T07:47:42;6.15;;;5.32;;
43620;SDS011;29213;50.770;7.298;2023-06-22T07:50:08;7.43;;;6.22;;
43620;SDS011;29213;50.770;7.298;2023-06-22T07:52:34;7.00;;;5.88;;
43620;SDS011;29213;50.770;7.298;2023-06-22T07:55:00;6.90;;;6.20;;
43620;SDS011;29213;50.770;7.298;2023-06-22T07:57:25;8.40;;;6.85;;
43620;SDS011;29213;50.770;7.298;2023-06-22T07:59:59;7.68;;;6.20;;
43620;SDS011;29213;50.770;7.298;2023-06-22T08:02:25;8.43;;;6.93;;
43620;SDS011;29213;50.770;7.298;2023-06-22T08:04:50;8.70;;;6.45;;
43620;SDS011;29213;50.770;7.298;2023-06-22T08:07:16;7.15;;;6.07;;
43620;SDS011;29213;50.770;7.298;2023-06-22T08:09:46;6.47;;;5.82;;
43620;SDS011;29213;50.770;7.298;2023-06-22T08:12:13;7.75;;;6.55;;
43620;SDS011;29213;50.770;7.298;2023-06-22T08:14:39;7.03;;;6.25;;
43620;SDS011;29213;50.770;7.298;2023-06-22T08:17:07;8.38;;;6.93;;
43620;SDS011;29213;50.770;7.298;2023-06-22T08:19:32;8.00;;;6.38;;
43620;SDS011;29213;50.770;7.298;2023-06-22T08:21:58;8.00;;;6.35;;
43620;SDS011;29213;50.770;7.298;2023-06-22T08:24:23;6.85;;;6.05;;
43620;SDS011;29213;50.770;7.298;2023-06-22T08:26:50;8.20;;;6.82;;
43620;SDS011;29213;50.770;7.298;2023-06-22T08:29:16;8.77;;;6.25;;
43620;SDS011;29213;50.770;7.298;2023-06-22T08:31:42;7.78;;;6.53;;
43620;SDS011;29213;50.770;7.298;2023-06-22T08:34:07;7.32;;;6.10;;
43620;SDS011;29213;50.770;7.298;2023-06-22T08:36:33;8.50;;;6.65;;
43620;SDS011;29213;50.770;7.298;2023-06-22T08:39:03;7.53;;;6.03;;
43620;SDS011;29213;50.770;7.298;2023-06-22T08:41:29;5.95;;;5.35;;
43620;SDS011;29213;50.770;7.298;2023-06-22T08:43:54;7.40;;;6.47;;
43620;SDS011;29213;50.770;7.298;2023-06-22T08:46:20;7.72;;;6.43;;
43620;SDS011;29213;50.770;7.298;2023-06-22T08:48:48;7.47;;;6.40;;
43620;SDS011;29213;50.770;7.298;2023-06-22T08:51:14;7.53;;;5.85;;
43620;SDS011;29213;50.770;7.298;2023-06-22T08:53:39;7.50;;;6.50;;
43620;SDS011;29213;50.770;7.298;2023-06-22T08:56:05;8.45;;;6.65;;
43620;SDS011;29213;50.770;7.298;2023-06-22T08:58:30;7.10;;;6.22;;
43620;SDS011;29213;50.770;7.298;2023-06-22T09:00:55;7.00;;;5.85;;
43620;SDS011;29213;50.770;7.298;2023-06-22T09:03:21;7.30;;;5.97;;
43620;SDS011;29213;50.770;7.298;2023-06-22T09:05:46;9.05;;;6.43;;
43620;SDS011;29213;50.770;7.298;2023-06-22T09:08:12;6.80;;;6.10;;
43620;SDS011;29213;50.770;7.298;2023-06-22T09:10:37;7.65;;;6.13;;
43620;SDS011;29213;50.770;7.298;2023-06-22T09:13:02;8.02;;;6.40;;
43620;SDS011;29213;50.770;7.298;2023-06-22T09:15:28;10.15;;;6.85;;
43620;SDS011;29213;50.770;7.298;2023-06-22T09:17:53;7.82;;;6.15;;
43620;SDS011;29213;50.770;7.298;2023-06-22T09:20:19;6.97;;;6.00;;
43620;SDS011;29213;50.770;7.298;2023-06-22T09:22:45;8.32;;;6.40;;
43620;SDS011;29213;50.770;7.298;2023-06-22T09:25:10;7.18;;;6.13;;
43620;SDS011;29213;50.770;7.298;2023-06-22T09:27:35;6.93;;;5.90;;
43620;SDS011;29213;50.770;7.298;2023-06-22T09:30:01;6.57;;;5.85;;
43620;SDS011;29213;50.770;7.298;2023-06-22T09:32:28;9.10;;;6.13;;
43620;SDS011;29213;50.770;7.298;2023-06-22T09:34:53;7.43;;;6.00;;
43620;SDS011;29213;50.770;7.298;2023-06-22T09:37:19;6.90;;;5.70;;
43620;SDS011;29213;50.770;7.298;2023-06-22T09:39:44;8.25;;;6.43;;
43620;SDS011;29213;50.770;7.298;2023-06-22T09:42:10;6.68;;;5.68;;
43620;SDS011;29213;50.770;7.298;2023-06-22T09:44:35;6.72;;;5.82;;
43620;SDS011;29213;50.770;7.298;2023-06-22T09:47:00;6.97;;;6.03;;
43620;SDS011;29213;50.770;7.298;2023-06-22T09:49:27;7.60;;;6.20;;
43620;SDS011;29213;50.770;7.298;2023-06-22T09:51:52;6.75;;;6.05;;
43620;SDS011;29213;50.770;7.298;2023-06-22T09:54:18;8.35;;;6.28;;
43620;SDS011;29213;50.770;7.298;2023-06-22T09:56:43;8.45;;;6.22;;
43620;SDS011;29213;50.770;7.298;2023-06-22T09:59:09;8.70;;;6.07;;
43620;SDS011;29213;50.770;7.298;2023-06-22T10:01:34;7.55;;;6.50;;
43620;SDS011;29213;50.770;7.298;2023-06-22T10:03:59;8.43;;;6.32;;
43620;SDS011;29213;50.770;7.298;2023-06-22T10:06:25;7.00;;;6.30;;
43620;SDS011;29213;50.770;7.298;2023-06-22T10:08:50;7.40;;;6.30;;
43620;SDS011;29213;50.770;7.298;2023-06-22T10:11:16;8.63;;;6.10;;
43620;SDS011;29213;50.770;7.298;2023-06-22T10:13:42;6.82;;;5.75;;
43620;SDS011;29213;50.770;7.298;2023-06-22T10:16:08;8.45;;;6.75;;
43620;SDS011;29213;50.770;7.298;2023-06-22T10:18:33;7.18;;;6.07;;
43620;SDS011;29213;50.770;7.298;2023-06-22T10:20:59;7.88;;;6.88;;
43620;SDS011;29213;50.770;7.298;2023-06-22T10:23:25;6.93;;;5.82;;
43620;SDS011;29213;50.770;7.298;2023-06-22T10:25:50;6.95;;;5.82;;
43620;SDS011;29213;50.770;7.298;2023-06-22T10:28:15;6.93;;;5.68;;
43620;SDS011;29213;50.770;7.298;2023-06-22T10:30:41;6.40;;;5.78;;
43620;SDS011;29213;50.770;7.298;2023-06-22T10:33:07;6.50;;;5.80;;
43620;SDS011;29213;50.770;7.298;2023-06-22T10:35:33;7.22;;;5.95;;
43620;SDS011;29213;50.770;7.298;2023-06-22T10:37:59;6.75;;;6.05;;
43620;SDS011;29213;50.770;7.298;2023-06-22T10:40:25;7.10;;;5.45;;
43620;SDS011;29213;50.770;7.298;2023-06-22T10:42:50;6.82;;;6.13;;
43620;SDS011;29213;50.770;7.298;2023-06-22T10:45:15;7.63;;;6.10;;
43620;SDS011;29213;50.770;7.298;2023-06-22T10:47:41;7.22;;;5.80;;
43620;SDS011;29213;50.770;7.298;2023-06-22T10:50:10;10.10;;;6.03;;
43620;SDS011;29213;50.770;7.298;2023-06-22T10:52:35;7.03;;;6.32;;
43620;SDS011;29213;50.770;7.298;2023-06-22T10:55:01;7.50;;;6.25;;
43620;SDS011;29213;50.770;7.298;2023-06-22T10:57:27;7.60;;;6.45;;
43620;SDS011;29213;50.770;7.298;2023-06-22T10:59:52;8.65;;;6.97;;
43620;SDS011;29213;50.770;7.298;2023-06-22T11:02:17;8.65;;;6.70;;
43620;SDS011;29213;50.770;7.298;2023-06-22T11:04:43;8.90;;;6.60;;
43620;SDS011;29213;50.770;7.298;2023-06-22T11:07:08;10.57;;;7.22;;
43620;SDS011;29213;50.770;7.298;2023-06-22T11:09:34;12.35;;;7.25;;
43620;SDS011;29213;50.770;7.298;2023-06-22T11:11:59;12.73;;;7.68;;
43620;SDS011;29213;50.770;7.298;2023-06-22T11:14:25;11.25;;;7.47;;
43620;SDS011;29213;50.770;7.298;2023-06-22T11:16:50;8.27;;;6.68;;
43620;SDS011;29213;50.770;7.298;2023-06-22T11:19:16;8.85;;;7.13;;
43620;SDS011;29213;50.770;7.298;2023-06-22T11:21:42;7.88;;;6.50;;
43620;SDS011;29213;50.770;7.298;2023-06-22T11:24:07;9.55;;;7.40;;
43620;SDS011;29213;50.770;7.298;2023-06-22T11:26:33;8.57;;;7.47;;
43620;SDS011;29213;50.770;7.298;2023-06-22T11:28:59;9.65;;;7.32;;
43620;SDS011;29213;50.770;7.298;2023-06-22T11:31:24;8.30;;;7.18;;
43620;SDS011;29213;50.770;7.298;2023-06-22T11:33:50;7.68;;;6.47;;
43620;SDS011;29213;50.770;7.298;2023-06-22T11:36:15;8.52;;;6.80;;
43620;SDS011;29213;50.770;7.298;2023-06-22T11:38:42;7.35;;;5.97;;
43620;SDS011;29213;50.770;7.298;2023-06-22T11:41:08;9.68;;;6.68;;
43620;SDS011;29213;50.770;7.298;2023-06-22T11:43:34;11.07;;;6.85;;
43620;SDS011;29213;50.770;7.298;2023-06-22T11:46:01;8.15;;;5.70;;
43620;SDS011;29213;50.770;7.298;2023-06-22T11:48:28;6.68;;;5.55;;
43620;SDS011;29213;50.770;7.298;2023-06-22T11:50:53;5.57;;;4.75;;
43620;SDS011;29213;50.770;7.298;2023-06-22T11:53:20;7.32;;;4.70;;
43620;SDS011;29213;50.770;7.298;2023-06-22T11:55:46;6.10;;;4.90;;
43620;SDS011;29213;50.770;7.298;2023-06-22T11:58:12;6.30;;;5.18;;
43620;SDS011;29213;50.770;7.298;2023-06-22T12:00:38;7.07;;;5.10;;
43620;SDS011;29213;50.770;7.298;2023-06-22T12:03:04;7.75;;;5.20;;
43620;SDS011;29213;50.770;7.298;2023-06-22T12:05:29;7.20;;;5.45;;
43620;SDS011;29213;50.770;7.298;2023-06-22T12:07:55;6.75;;;5.55;;
43620;SDS011;29213;50.770;7.298;2023-06-22T12:10:24;7.28;;;5.70;;
43620;SDS011;29213;50.770;7.298;2023-06-22T12:12:50;6.20;;;5.13;;
43620;SDS011;29213;50.770;7.298;2023-06-22T12:15:16;5.88;;;4.95;;
43620;SDS011;29213;50.770;7.298;2023-06-22T12:17:41;6.30;;;5.00;;
43620;SDS011;29213;50.770;7.298;2023-06-22T12:20:07;7.07;;;5.00;;
43620;SDS011;29213;50.770;7.298;2023-06-22T12:22:32;7.15;;;4.80;;
43620;SDS011;29213;50.770;7.298;2023-06-22T12:24:58;6.00;;;4.75;;
43620;SDS011;29213;50.770;7.298;2023-06-22T12:27:24;5.15;;;4.40;;
43620;SDS011;29213;50.770;7.298;2023-06-22T12:29:50;6.75;;;4.47;;
43620;SDS011;29213;50.770;7.298;2023-06-22T12:32:15;5.38;;;4.43;;
43620;SDS011;29213;50.770;7.298;2023-06-22T12:34:41;5.57;;;4.40;;
43620;SDS011;29213;50.770;7.298;2023-06-22T12:37:07;4.97;;;4.22;;
43620;SDS011;29213;50.770;7.298;2023-06-22T12:39:32;5.35;;;3.78;;
43620;SDS011;29213;50.770;7.298;2023-06-22T12:41:58;6.38;;;4.93;;
43620;SDS011;29213;50.770;7.298;2023-06-22T12:44:23;5.07;;;4.20;;
43620;SDS011;29213;50.770;7.298;2023-06-22T12:46:49;4.25;;;3.00;;
43620;SDS011;29213;50.770;7.298;2023-06-22T12:49:14;3.42;;;2.30;;
43620;SDS011;29213;50.770;7.298;2023-06-22T12:51:40;3.72;;;2.40;;
43620;SDS011;29213;50.770;7.298;2023-06-22T12:54:07;3.45;;;2.45;;
43620;SDS011;29213;50.770;7.298;2023-06-22T12:56:32;3.92;;;2.40;;
43620;SDS011;29213;50.770;7.298;2023-06-22T12:58:58;3.80;;;2.05;;
43620;SDS011;29213;50.770;7.298;2023-06-22T13:01:26;3.70;;;1.92;;
43620;SDS011;29213;50.770;7.298;2023-06-22T13:03:52;3.20;;;2.00;;
43620;SDS011;29213;50.770;7.298;2023-06-22T13:06:18;3.67;;;2.33;;
43620;SDS011;29213;50.770;7.298;2023-06-22T13:08:43;3.42;;;2.60;;
43620;SDS011;29213;50.770;7.298;2023-06-22T13:11:08;3.90;;;2.58;;
43620;SDS011;29213;50.770;7.298;2023-06-22T13:13:34;3.35;;;2.25;;
43620;SDS011;29213;50.770;7.298;2023-06-22T13:15:59;3.80;;;2.45;;
43620;SDS011;29213;50.770;7.298;2023-06-22T13:18:25;4.20;;;2.58;;
43620;SDS011;29213;50.770;7.298;2023-06-22T13:20:50;3.67;;;2.28;;
43620;SDS011;29213;50.770;7.298;2023-06-22T13:23:15;3.92;;;2.58;;
43620;SDS011;29213;50.770;7.298;2023-06-22T13:25:41;5.82;;;2.92;;
43620;SDS011;29213;50.770;7.298;2023-06-22T13:28:06;4.32;;;2.63;;
43620;SDS011;29213;50.770;7.298;2023-06-22T13:30:32;3.85;;;2.78;;
43620;SDS011;29213;50.770;7.298;2023-06-22T13:32:57;4.25;;;2.80;;
43620;SDS011;29213;50.770;7.298;2023-06-22T13:35:23;5.22;;;3.13;;
43620;SDS011;29213;50.770;7.298;2023-06-22T13:37:48;4.32;;;3.10;;
43620;SDS011;29213;50.770;7.298;2023-06-22T13:40:14;4.00;;;3.05;;
43620;SDS011;29213;50.770;7.298;2023-06-22T13:42:39;7.20;;;3.85;;
43620;SDS011;29213;50.770;7.298;2023-06-22T13:45:06;4.35;;;3.20;;
43620;SDS011;29213;50.770;7.298;2023-06-22T13:47:31;4.97;;;3.88;;
43620;SDS011;29213;50.770;7.298;2023-06-22T13:49:57;5.45;;;3.70;;
43620;SDS011;29213;50.770;7.298;2023-06-22T13:52:23;5.03;;;3.95;;
43620;SDS011;29213;50.770;7.298;2023-06-22T13:54:48;6.75;;;4.30;;
43620;SDS011;29213;50.770;7.298;2023-06-22T13:57:14;5.22;;;3.78;;
43620;SDS011;29213;50.770;7.298;2023-06-22T13:59:39;4.85;;;3.85;;
43620;SDS011;29213;50.770;7.298;2023-06-22T14:02:05;6.28;;;4.18;;
43620;SDS011;29213;50.770;7.298;2023-06-22T14:04:31;5.53;;;4.35;;
43620;SDS011;29213;50.770;7.298;2023-06-22T14:06:56;5.32;;;4.13;;
43620;SDS011;29213;50.770;7.298;2023-06-22T14:09:22;5.47;;;4.38;;
43620;SDS011;29213;50.770;7.298;2023-06-22T14:11:47;6.28;;;4.68;;
43620;SDS011;29213;50.770;7.298;2023-06-22T14:14:12;6.57;;;4.53;;
43620;SDS011;29213;50.770;7.298;2023-06-22T14:16:38;5.07;;;4.10;;
43620;SDS011;29213;50.770;7.298;2023-06-22T14:19:03;5.95;;;3.78;;
43620;SDS011;29213;50.770;7.298;2023-06-22T14:21:29;5.45;;;4.05;;
43620;SDS011;29213;50.770;7.298;2023-06-22T14:23:54;4.90;;;3.92;;
43620;SDS011;29213;50.770;7.298;2023-06-22T14:26:20;6.50;;;4.32;;
43620;SDS011;29213;50.770;7.298;2023-06-22T14:28:46;5.78;;;4.03;;
43620;SDS011;29213;50.770;7.298;2023-06-22T14:31:16;5.78;;;4.57;;
43620;SDS011;29213;50.770;7.298;2023-06-22T14:33:45;5.78;;;4.25;;
43620;SDS011;29213;50.770;7.298;2023-06-22T14:36:12;7.53;;;4.70;;
43620;SDS011;29213;50.770;7.298;2023-06-22T14:38:37;7.97;;;5.20;;
43620;SDS011;29213;50.770;7.298;2023-06-22T14:41:02;7.13;;;5.38;;
43620;SDS011;29213;50.770;7.298;2023-06-22T14:43:28;7.97;;;5.07;;
43620;SDS011;29213;50.770;7.298;2023-06-22T14:45:53;6.13;;;5.13;;
43620;SDS011;29213;50.770;7.298;2023-06-22T14:48:19;5.65;;;4.90;;
43620;SDS011;29213;50.770;7.298;2023-06-22T14:50:44;6.20;;;4.60;;